CheckWX is a tool to help pilots better visualize weather data.  It is not intended as a substitute for an official pre-flight weather briefing.

16:07:32 UTC

CYKG TAF
Kangiqsujuaq (Wakeham Bay) Airport
Kangiqsujuaq, Canada
TAF CYKG 221338Z 2214/2221 VRB03KT P6SM BKN250 BECMG 2215/2217 35010KT RMK NXT FCST WILL BE ISSUED AT 231345Z

Aug-22@
14:00 UTC

Aug-22 @ 14:00 UTC

Aug-22@
15:00 UTC

Aug-22 @ 15:00 UTC

TAF CYKG 221338Z 2214/2221 VRB03KT P6SM BKN250

Expired

Wind
  • Variable at 3 KTS
Cloud Levels
  • Broken at 25,000' AGL

Aug-22@
15:00 UTC

Aug-22 @ 15:00 UTC

Aug-22@
21:00 UTC

Aug-22 @ 21:00 UTC

BECMG 2215/2217 35010KT RMK NXT FCST WILL BE ISSUED AT 231345Z

Becoming

Becoming Conditions expected by Thu, Aug 22, 2019 @ 17:00 UTC

Wind
  • 350° at 10 KTS
Cloud Levels
  • Broken at 25,000' AGL